Time,TemperatureF,DewpointF,PressureIn,WindDirection,WindDirectionDegrees,WindSpeedMPH,WindSpeedGustMPH,Humidity,HourlyPrecipIn,Conditions,Clouds,dailyrainin,SoftwareType,DateUTC
2013-12-10 00:00:00,66.9,62.9,30.11,ESE,110,0.0,0.0,87,0.00,,---,0.00,VWS V14.01,2013-12-10 05:00:00,
2013-12-10 00:01:00,66.9,62.9,30.11,ESE,110,0.0,0.0,87,0.00,,---,0.00,VWS V14.01,2013-12-10 05:01:00,
2013-12-10 00:02:00,66.9,62.9,30.10,ESE,110,0.0,0.0,87,0.00,,---,0.00,VWS V14.01,2013-12-10 05:02:00,
2013-12-10 00:07:00,66.8,62.8,30.11,ESE,110,0.0,0.0,87,0.00,,---,0.00,VWS V14.01,2013-12-10 05:07:00,
2013-12-10 00:10:00,66.8,62.8,30.11,ESE,110,0.0,0.0,87,0.00,,---,0.00,VWS V14.01,2013-12-10 05:10:00,
2013-12-10 00:12:00,66.7,62.7,30.11,ESE,110,0.0,0.0,87,0.00,,---,0.00,VWS V14.01,2013-12-10 05:12:00,
2013-12-10 00:17:00,66.7,62.7,30.10,ESE,110,0.0,0.0,87,0.00,,---,0.00,VWS V14.01,2013-12-10 05:17:00,
2013-12-10 00:20:00,66.9,62.9,30.10,ESE,110,0.0,0.0,87,0.00,,---,0.00,VWS V14.01,2013-12-10 05:20:00,
2013-12-10 00:22:00,66.9,62.9,30.10,ESE,110,0.0,0.0,87,0.00,,---,0.00,VWS V14.01,2013-12-10 05:22:00,
2013-12-10 00:27:00,66.9,62.9,30.10,ESE,110,0.0,0.0,87,0.00,,---,0.00,VWS V14.01,2013-12-10 05:27:00,
2013-12-10 00:30:00,66.9,62.9,30.10,ESE,110,0.0,0.0,87,0.00,,---,0.00,VWS V14.01,2013-12-10 05:30:00,
2013-12-10 00:32:00,67.0,63.0,30.10,ESE,110,0.0,0.0,87,0.00,,---,0.00,VWS V14.01,2013-12-10 05:32:00,
2013-12-10 00:37:00,67.1,63.1,30.10,ESE,110,0.0,0.0,87,0.00,,---,0.00,VWS V14.01,2013-12-10 05:37:00,
2013-12-10 00:40:00,67.0,63.0,30.10,ESE,110,0.0,0.0,87,0.00,,---,0.00,VWS V14.01,2013-12-10 05:40:00,
2013-12-10 00:42:00,67.0,63.0,30.10,ESE,110,0.0,0.0,87,0.00,,---,0.00,VWS V14.01,2013-12-10 05:42:00,
2013-12-10 00:47:00,66.9,62.9,30.10,SE,126,0.0,0.0,87,0.00,,---,0.00,VWS V14.01,2013-12-10 05:47:00,
2013-12-10 00:50:00,66.9,62.9,30.10,SE,126,0.0,0.0,87,0.00,,---,0.00,VWS V14.01,2013-12-10 05:50:00,
2013-12-10 00:52:00,66.8,62.8,30.10,SE,126,0.0,0.0,87,0.00,,---,0.00,VWS V14.01,2013-12-10 05:52:00,
2013-12-10 00:57:00,66.7,62.7,30.10,SE,126,0.0,0.0,87,0.00,,---,0.00,VWS V14.01,2013-12-10 05:57:00,
2013-12-10 01:00:00,66.6,62.6,30.10,SE,126,0.0,0.0,87,0.00,,---,0.00,VWS V14.01,2013-12-10 06:00:00,
2013-12-10 01:02:00,66.4,62.4,30.10,SE,126,0.0,0.0,87,0.00,,---,0.00,VWS V14.01,2013-12-10 06:02:00,
2013-12-10 01:07:00,66.3,62.3,30.10,SE,126,0.0,0.0,87,0.00,,---,0.00,VWS V14.01,2013-12-10 06:07:00,
2013-12-10 01:10:00,66.2,62.2,30.10,SE,126,0.0,0.0,87,0.00,,---,0.00,VWS V14.01,2013-12-10 06:10:00,
2013-12-10 01:12:00,66.1,62.1,30.10,SE,125,0.0,0.0,87,0.00,,---,0.00,VWS V14.01,2013-12-10 06:12:00,
2013-12-10 01:17:00,66.0,62.0,30.10,SE,125,0.0,0.0,87,0.00,,---,0.00,VWS V14.01,2013-12-10 06:17:00,
2013-12-10 01:20:00,66.0,62.0,30.10,SE,126,0.0,0.0,87,0.00,,---,0.00,VWS V14.01,2013-12-10 06:20:00,
2013-12-10 01:22:00,66.0,62.0,30.10,SE,125,0.0,0.0,87,0.00,,---,0.00,VWS V14.01,2013-12-10 06:22:00,
2013-12-10 01:27:00,66.0,62.0,30.09,SE,126,0.0,0.0,87,0.00,,---,0.00,VWS V14.01,2013-12-10 06:27:00,
2013-12-10 01:30:00,65.9,61.9,30.10,SE,125,0.0,0.0,87,0.00,,---,0.00,VWS V14.01,2013-12-10 06:30:00,
2013-12-10 01:32:00,65.8,61.8,30.10,SE,126,0.0,0.0,87,0.00,,---,0.00,VWS V14.01,2013-12-10 06:32:00,
2013-12-10 01:37:00,65.8,61.8,30.10,SE,126,0.0,0.0,87,0.00,,---,0.00,VWS V14.01,2013-12-10 06:37:00,
2013-12-10 01:40:00,65.7,61.7,30.10,SE,125,0.0,0.0,87,0.00,,---,0.00,VWS V14.01,2013-12-10 06:40:00,
2013-12-10 01:42:00,65.7,61.7,30.10,SE,126,0.0,0.0,87,0.00,,---,0.00,VWS V14.01,2013-12-10 06:42:00,
2013-12-10 01:47:00,65.6,61.6,30.10,SSE,154,0.0,0.0,87,0.00,,---,0.00,VWS V14.01,2013-12-10 06:47:00,
2013-12-10 01:50:00,65.6,61.6,30.10,SSE,153,0.0,0.0,87,0.00,,---,0.00,VWS V14.01,2013-12-10 06:50:00,
2013-12-10 01:52:00,65.6,61.6,30.10,SSE,153,0.0,0.0,87,0.00,,---,0.00,VWS V14.01,2013-12-10 06:52:00,
2013-12-10 01:57:00,65.5,61.5,30.09,ESE,104,0.0,0.0,87,0.00,,---,0.00,VWS V14.01,2013-12-10 06:57:00,
2013-12-10 02:00:00,65.5,61.5,30.09,ESE,105,0.0,0.0,87,0.00,,---,0.00,VWS V14.01,2013-12-10 07:00:00,
2013-12-10 02:03:00,65.5,61.5,30.09,ESE,104,0.0,0.0,87,0.00,,---,0.00,VWS V14.01,2013-12-10 07:03:00,
2013-12-10 02:08:00,65.5,61.5,30.09,ESE,103,0.0,0.0,87,0.00,,---,0.00,VWS V14.01,2013-12-10 07:08:00,
2013-12-10 02:10:00,65.5,61.5,30.09,East,91,0.0,0.0,87,0.00,,---,0.00,VWS V14.01,2013-12-10 07:10:00,
2013-12-10 02:13:00,65.6,61.6,30.09,East,91,0.0,0.0,87,0.00,,---,0.00,VWS V14.01,2013-12-10 07:13:00,
2013-12-10 02:18:00,65.6,61.6,30.09,SSE,160,0.0,0.0,87,0.00,,---,0.00,VWS V14.01,2013-12-10 07:18:00,
2013-12-10 02:20:00,65.6,61.6,30.09,SSE,159,0.0,0.0,87,0.00,,---,0.00,VWS V14.01,2013-12-10 07:20:00,
2013-12-10 02:23:00,65.6,61.6,30.09,SSE,160,0.0,0.0,87,0.00,,---,0.00,VWS V14.01,2013-12-10 07:23:00,
2013-12-10 02:28:00,65.8,61.8,30.09,East,94,0.0,0.0,87,0.00,,---,0.00,VWS V14.01,2013-12-10 07:28:00,
2013-12-10 02:30:00,65.8,61.8,30.09,East,84,0.0,0.0,87,0.00,,---,0.00,VWS V14.01,2013-12-10 07:30:00,
2013-12-10 02:33:00,66.0,62.0,30.09,SE,125,0.0,2.0,87,0.00,,---,0.00,VWS V14.01,2013-12-10 07:33:00,
2013-12-10 02:38:00,66.1,62.1,30.09,SE,125,0.0,2.0,87,0.00,,---,0.00,VWS V14.01,2013-12-10 07:38:00,
2013-12-10 02:40:00,66.1,62.1,30.09,SE,126,0.0,2.0,87,0.00,,---,0.00,VWS V14.01,2013-12-10 07:40:00,
2013-12-10 02:43:00,66.2,62.2,30.09,ESE,113,0.0,0.0,87,0.00,,---,0.00,VWS V14.01,2013-12-10 07:43:00,
2013-12-10 02:48:00,66.2,62.2,30.09,NE,48,0.0,0.0,87,0.00,,---,0.00,VWS V14.01,2013-12-10 07:48:00,
2013-12-10 02:50:00,66.3,62.3,30.09,NE,48,0.0,0.0,87,0.00,,---,0.00,VWS V14.01,2013-12-10 07:50:00,
2013-12-10 02:53:00,66.4,62.4,30.09,ESE,113,0.0,0.0,87,0.00,,---,0.00,VWS V14.01,2013-12-10 07:53:00,
2013-12-10 02:58:00,66.5,62.5,30.09,ESE,113,0.0,1.0,87,0.00,,---,0.00,VWS V14.01,2013-12-10 07:58:00,
2013-12-10 03:00:00,66.5,62.5,30.09,ESE,113,0.0,1.0,87,0.00,,---,0.00,VWS V14.01,2013-12-10 08:00:00,
2013-12-10 03:03:00,66.6,62.6,30.09,ESE,112,0.0,0.0,87,0.00,,---,0.00,VWS V14.01,2013-12-10 08:03:00,
2013-12-10 03:08:00,66.6,62.9,30.09,ESE,113,0.0,1.0,88,0.00,,---,0.00,VWS V14.01,2013-12-10 08:08:00,
2013-12-10 03:10:00,66.6,62.9,30.09,ESE,113,0.0,1.0,88,0.00,,---,0.00,VWS V14.01,2013-12-10 08:10:00,
2013-12-10 03:13:00,66.6,62.9,30.09,ESE,113,0.0,0.0,88,0.00,,---,0.00,VWS V14.01,2013-12-10 08:13:00,
2013-12-10 03:18:00,66.7,62.7,30.09,ESE,113,0.0,0.0,87,0.00,,---,0.00,VWS V14.01,2013-12-10 08:18:00,
2013-12-10 03:20:00,66.7,63.0,30.09,ESE,113,0.0,0.0,88,0.00,,---,0.00,VWS V14.01,2013-12-10 08:20:00,
2013-12-10 03:23:00,66.7,63.0,30.09,ESE,113,0.0,0.0,88,0.00,,---,0.00,VWS V14.01,2013-12-10 08:23:00,
2013-12-10 03:28:00,66.7,63.0,30.09,SSE,161,0.0,1.0,88,0.00,,---,0.00,VWS V14.01,2013-12-10 08:28:00,
2013-12-10 03:30:00,66.7,63.0,30.09,SSE,161,0.0,1.0,88,0.00,,---,0.00,VWS V14.01,2013-12-10 08:30:00,
2013-12-10 03:33:00,66.8,63.1,30.09,ESE,122,0.0,1.0,88,0.00,,---,0.00,VWS V14.01,2013-12-10 08:33:00,
2013-12-10 03:38:00,66.8,63.1,30.09,ESE,120,0.0,1.0,88,0.00,,---,0.00,VWS V14.01,2013-12-10 08:38:00,
2013-12-10 03:40:00,66.8,63.1,30.09,ESE,120,0.0,1.0,88,0.00,,---,0.00,VWS V14.01,2013-12-10 08:40:00,
2013-12-10 03:43:00,66.8,62.8,30.09,ESE,118,0.0,1.0,87,0.00,,---,0.00,VWS V14.01,2013-12-10 08:43:00,
2013-12-10 03:48:00,66.8,62.8,30.09,ESE,107,0.0,1.0,87,0.00,,---,0.00,VWS V14.01,2013-12-10 08:48:00,
2013-12-10 03:50:00,66.8,62.8,30.09,ESE,107,0.0,1.0,87,0.00,,---,0.00,VWS V14.01,2013-12-10 08:50:00,
2013-12-10 03:53:00,66.7,62.7,30.09,ESE,108,0.0,0.0,87,0.00,,---,0.00,VWS V14.01,2013-12-10 08:53:00,
2013-12-10 03:58:00,66.6,62.6,30.09,ESE,106,0.0,0.0,87,0.00,,---,0.00,VWS V14.01,2013-12-10 08:58:00,
2013-12-10 04:00:00,66.6,62.6,30.09,ESE,106,0.0,0.0,87,0.00,,---,0.00,VWS V14.01,2013-12-10 09:00:00,
2013-12-10 04:03:00,66.4,62.7,30.09,ESE,108,0.0,1.0,88,0.00,,---,0.00,VWS V14.01,2013-12-10 09:03:00,
2013-12-10 04:04:00,66.4,62.7,30.09,ESE,107,0.0,1.0,88,0.00,,---,0.00,VWS V14.01,2013-12-10 09:04:00,
2013-12-10 04:09:00,66.2,62.5,30.09,ESE,107,0.0,1.0,88,0.00,,---,0.00,VWS V14.01,2013-12-10 09:09:00,
2013-12-10 04:10:00,66.1,62.5,30.09,ESE,105,0.0,1.0,88,0.00,,---,0.00,VWS V14.01,2013-12-10 09:10:00,
2013-12-10 04:14:00,65.9,62.2,30.09,ESE,106,0.0,0.0,88,0.00,,---,0.00,VWS V14.01,2013-12-10 09:14:00,
2013-12-10 04:19:00,65.8,62.2,30.10,ESE,108,0.0,0.0,88,0.00,,---,0.00,VWS V14.01,2013-12-10 09:19:00,
2013-12-10 04:20:00,65.7,62.0,30.10,ESE,108,0.0,0.0,88,0.00,,---,0.00,VWS V14.01,2013-12-10 09:20:00,
2013-12-10 04:24:00,65.7,62.0,30.09,ESE,108,0.0,0.0,88,0.00,,---,0.00,VWS V14.01,2013-12-10 09:24:00,
2013-12-10 04:29:00,65.6,62.0,30.09,ESE,108,0.0,0.0,88,0.00,,---,0.00,VWS V14.01,2013-12-10 09:29:00,
2013-12-10 04:30:00,65.6,62.0,30.09,ESE,107,0.0,0.0,88,0.00,,---,0.00,VWS V14.01,2013-12-10 09:30:00,
2013-12-10 04:34:00,65.5,61.9,30.10,ESE,106,0.0,0.0,88,0.00,,---,0.00,VWS V14.01,2013-12-10 09:34:00,
2013-12-10 04:39:00,65.3,61.7,30.10,ESE,107,0.0,0.0,88,0.00,,---,0.00,VWS V14.01,2013-12-10 09:39:00,
2013-12-10 04:40:00,65.3,61.7,30.10,ESE,107,0.0,0.0,88,0.00,,---,0.00,VWS V14.01,2013-12-10 09:40:00,
2013-12-10 04:44:00,65.1,61.5,30.10,ESE,108,0.0,0.0,88,0.00,,---,0.00,VWS V14.01,2013-12-10 09:44:00,
2013-12-10 04:49:00,64.8,61.2,30.09,ESE,107,0.0,0.0,88,0.00,,---,0.00,VWS V14.01,2013-12-10 09:49:00,
2013-12-10 04:50:00,64.8,61.2,30.09,ESE,106,0.0,0.0,88,0.00,,---,0.00,VWS V14.01,2013-12-10 09:50:00,
2013-12-10 04:54:00,64.6,61.0,30.10,ESE,107,0.0,0.0,88,0.00,,---,0.00,VWS V14.01,2013-12-10 09:54:00,
2013-12-10 04:59:00,64.3,60.7,30.10,ESE,108,0.0,0.0,88,0.00,,---,0.00,VWS V14.01,2013-12-10 09:59:00,
2013-12-10 05:00:00,64.3,60.7,30.10,ESE,108,0.0,0.0,88,0.00,,---,0.00,VWS V14.01,2013-12-10 10:00:00,
2013-12-10 05:04:00,63.9,60.3,30.10,ESE,108,0.0,0.0,88,0.00,,---,0.00,VWS V14.01,2013-12-10 10:04:00,
2013-12-10 05:09:00,63.8,60.2,30.10,ESE,108,0.0,0.0,88,0.00,,---,0.00,VWS V14.01,2013-12-10 10:09:00,
2013-12-10 05:10:00,63.7,60.1,30.10,ESE,105,0.0,0.0,88,0.00,,---,0.00,VWS V14.01,2013-12-10 10:10:00,
2013-12-10 05:14:00,63.5,59.9,30.10,ESE,108,0.0,0.0,88,0.00,,---,0.00,VWS V14.01,2013-12-10 10:14:00,
2013-12-10 05:19:00,63.3,59.7,30.10,ESE,108,0.0,0.0,88,0.00,,---,0.00,VWS V14.01,2013-12-10 10:19:00,
2013-12-10 05:20:00,63.3,59.7,30.10,ESE,105,0.0,0.0,88,0.00,,---,0.00,VWS V14.01,2013-12-10 10:20:00,
2013-12-10 05:24:00,63.1,59.5,30.10,ESE,108,0.0,0.0,88,0.00,,---,0.00,VWS V14.01,2013-12-10 10:24:00,
2013-12-10 05:29:00,62.8,59.2,30.10,ESE,108,0.0,0.0,88,0.00,,---,0.00,VWS V14.01,2013-12-10 10:29:00,
2013-12-10 05:30:00,62.8,59.2,30.10,ESE,108,0.0,0.0,88,0.00,,---,0.00,VWS V14.01,2013-12-10 10:30:00,
2013-12-10 05:34:00,62.7,59.1,30.10,ESE,108,0.0,0.0,88,0.00,,---,0.00,VWS V14.01,2013-12-10 10:34:00,
2013-12-10 05:39:00,62.5,58.9,30.10,ESE,108,0.0,0.0,88,0.00,,---,0.00,VWS V14.01,2013-12-10 10:39:00,
2013-12-10 05:40:00,62.5,58.9,30.10,ESE,107,0.0,0.0,88,0.00,,---,0.00,VWS V14.01,2013-12-10 10:40:00,
2013-12-10 05:44:00,62.3,58.7,30.10,ESE,107,0.0,0.0,88,0.00,,---,0.00,VWS V14.01,2013-12-10 10:44:00,
2013-12-10 05:49:00,62.2,58.6,30.10,ESE,108,0.0,0.0,88,0.00,,---,0.00,VWS V14.01,2013-12-10 10:49:00,
2013-12-10 05:50:00,62.2,58.6,30.10,ESE,108,0.0,0.0,88,0.00,,---,0.00,VWS V14.01,2013-12-10 10:50:00,
2013-12-10 05:54:00,62.2,58.6,30.10,ESE,107,0.0,0.0,88,0.00,,---,0.00,VWS V14.01,2013-12-10 10:54:00,
2013-12-10 05:59:00,62.3,58.7,30.10,ESE,108,0.0,0.0,88,0.00,,---,0.00,VWS V14.01,2013-12-10 10:59:00,
2013-12-10 06:00:00,62.2,58.6,30.10,ESE,108,0.0,0.0,88,0.00,,---,0.00,VWS V14.01,2013-12-10 11:00:00,
2013-12-10 06:04:00,62.1,58.5,30.11,ESE,107,0.0,0.0,88,0.00,,---,0.00,VWS V14.01,2013-12-10 11:04:00,
2013-12-10 06:09:00,61.7,58.1,30.11,ESE,108,0.0,0.0,88,0.00,,---,0.00,VWS V14.01,2013-12-10 11:09:00,
2013-12-10 06:10:00,61.7,58.1,30.11,ESE,107,0.0,0.0,88,0.00,,---,0.00,VWS V14.01,2013-12-10 11:10:00,
2013-12-10 06:14:00,61.8,58.2,30.11,ESE,107,0.0,0.0,88,0.00,,---,0.00,VWS V14.01,2013-12-10 11:14:00,
2013-12-10 06:19:00,62.0,58.4,30.11,ESE,108,0.0,0.0,88,0.00,,---,0.00,VWS V14.01,2013-12-10 11:19:00,
2013-12-10 06:20:00,62.0,58.4,30.11,ESE,108,0.0,0.0,88,0.00,,---,0.00,VWS V14.01,2013-12-10 11:20:00,
2013-12-10 06:24:00,61.8,58.2,30.11,ESE,107,0.0,0.0,88,0.00,,---,0.00,VWS V14.01,2013-12-10 11:24:00,
2013-12-10 06:29:00,61.6,58.0,30.11,ESE,108,0.0,0.0,88,0.00,,---,0.00,VWS V14.01,2013-12-10 11:29:00,
2013-12-10 06:30:00,61.6,58.0,30.11,ESE,108,0.0,0.0,88,0.00,,---,0.00,VWS V14.01,2013-12-10 11:30:00,
2013-12-10 06:34:00,61.5,57.9,30.11,ESE,107,0.0,0.0,88,0.00,,---,0.00,VWS V14.01,2013-12-10 11:34:00,
2013-12-10 06:40:00,61.4,57.8,30.11,ESE,108,0.0,0.0,88,0.00,,---,0.00,VWS V14.01,2013-12-10 11:40:00,
2013-12-10 06:45:00,61.4,57.8,30.11,ESE,108,0.0,0.0,88,0.00,,---,0.00,VWS V14.01,2013-12-10 11:45:00,
2013-12-10 06:50:00,61.4,57.8,30.12,ESE,107,0.0,0.0,88,0.00,,---,0.00,VWS V14.01,2013-12-10 11:50:00,
2013-12-10 06:55:00,61.4,57.8,30.12,ESE,107,0.0,0.0,88,0.00,,---,0.00,VWS V14.01,2013-12-10 11:55:00,
2013-12-10 07:00:00,61.4,57.8,30.12,ESE,107,0.0,0.0,88,0.00,,---,0.00,VWS V14.01,2013-12-10 12:00:00,
2013-12-10 07:05:00,61.6,58.0,30.12,ESE,108,0.0,0.0,88,0.00,,---,0.00,VWS V14.01,2013-12-10 12:05:00,
2013-12-10 07:10:00,61.6,58.0,30.12,ESE,107,0.0,0.0,88,0.00,,---,0.00,VWS V14.01,2013-12-10 12:10:00,
2013-12-10 07:15:00,61.5,57.9,30.12,ESE,107,0.0,0.0,88,0.00,,---,0.00,VWS V14.01,2013-12-10 12:15:00,
2013-12-10 07:20:00,61.5,57.9,30.12,ESE,107,0.0,0.0,88,0.00,,---,0.00,VWS V14.01,2013-12-10 12:20:00,
2013-12-10 07:25:00,61.7,58.1,30.12,ESE,108,0.0,0.0,88,0.00,,---,0.00,VWS V14.01,2013-12-10 12:25:00,
2013-12-10 07:30:00,61.6,58.0,30.12,ESE,107,0.0,0.0,88,0.00,,---,0.00,VWS V14.01,2013-12-10 12:30:00,
2013-12-10 07:35:00,62.0,58.4,30.12,ESE,108,0.0,0.0,88,0.00,,---,0.00,VWS V14.01,2013-12-10 12:35:00,
2013-12-10 07:40:00,62.2,58.6,30.12,ESE,107,0.0,0.0,88,0.00,,---,0.00,VWS V14.01,2013-12-10 12:40:00,
2013-12-10 07:45:00,62.9,59.3,30.12,ESE,107,0.0,0.0,88,0.00,,---,0.00,VWS V14.01,2013-12-10 12:45:00,
2013-12-10 07:50:00,63.6,60.3,30.12,ESE,105,0.0,0.0,89,0.00,,---,0.00,VWS V14.01,2013-12-10 12:50:00,
2013-12-10 07:55:00,64.0,60.4,30.12,ESE,108,0.0,0.0,88,0.00,,---,0.00,VWS V14.01,2013-12-10 12:55:00,
2013-12-10 08:00:00,64.3,60.7,30.12,SSE,166,0.0,0.0,88,0.00,,---,0.00,VWS V14.01,2013-12-10 13:00:00,
2013-12-10 08:05:00,64.6,61.0,30.12,SW,219,0.0,2.0,88,0.00,,---,0.00,VWS V14.01,2013-12-10 13:05:00,
2013-12-10 08:10:00,64.9,61.3,30.13,WSW,243,0.0,0.0,88,0.00,,---,0.00,VWS V14.01,2013-12-10 13:10:00,
2013-12-10 08:15:00,65.2,61.6,30.13,South,181,0.0,2.0,88,0.00,,---,0.00,VWS V14.01,2013-12-10 13:15:00,
2013-12-10 08:20:00,65.5,61.9,30.13,West,277,0.0,0.0,88,0.00,,---,0.00,VWS V14.01,2013-12-10 13:20:00,
2013-12-10 08:25:00,65.9,61.9,30.13,South,181,0.0,2.0,87,0.00,,---,0.00,VWS V14.01,2013-12-10 13:25:00,
2013-12-10 08:30:00,66.4,62.4,30.13,SW,223,0.0,0.0,87,0.00,,---,0.00,VWS V14.01,2013-12-10 13:30:00,
2013-12-10 08:35:00,66.9,62.9,30.13,SW,224,0.0,4.0,87,0.00,,---,0.00,VWS V14.01,2013-12-10 13:35:00,
2013-12-10 08:40:00,67.4,63.1,30.14,SSW,211,0.0,0.0,86,0.00,,---,0.00,VWS V14.01,2013-12-10 13:40:00,
2013-12-10 08:46:00,68.1,63.8,30.14,SW,222,0.0,0.0,86,0.00,,---,0.00,VWS V14.01,2013-12-10 13:46:00,
2013-12-10 08:50:00,68.7,64.7,30.14,WSW,239,0.0,3.0,87,0.00,,---,0.00,VWS V14.01,2013-12-10 13:50:00,
2013-12-10 08:51:00,68.9,64.9,30.14,SE,129,1.0,1.0,87,0.00,,---,0.00,VWS V14.01,2013-12-10 13:51:00,
2013-12-10 08:56:00,69.6,65.6,30.14,SSE,158,1.0,2.0,87,0.00,,---,0.00,VWS V14.01,2013-12-10 13:56:00,
2013-12-10 09:00:00,70.2,66.2,30.14,East,85,1.0,3.0,87,0.00,,---,0.00,VWS V14.01,2013-12-10 14:00:00,
2013-12-10 09:01:00,70.4,66.3,30.14,SW,228,0.0,2.0,87,0.00,,---,0.00,VWS V14.01,2013-12-10 14:01:00,
2013-12-10 09:06:00,71.1,66.7,30.14,WNW,288,0.0,3.0,86,0.00,,---,0.00,VWS V14.01,2013-12-10 14:06:00,
2013-12-10 09:10:00,71.6,67.2,30.14,East,99,1.0,3.0,86,0.00,,---,0.00,VWS V14.01,2013-12-10 14:10:00,
2013-12-10 09:11:00,71.7,66.9,30.14,WSW,249,0.0,3.0,85,0.00,,---,0.00,VWS V14.01,2013-12-10 14:11:00,
2013-12-10 09:16:00,72.0,67.2,30.14,NW,312,0.0,3.0,85,0.00,,---,0.00,VWS V14.01,2013-12-10 14:16:00,
2013-12-10 09:20:00,72.3,67.2,30.14,West,280,2.0,3.0,84,0.00,,---,0.00,VWS V14.01,2013-12-10 14:20:00,
2013-12-10 09:21:00,72.4,67.3,30.14,WNW,285,0.0,2.0,84,0.00,,---,0.00,VWS V14.01,2013-12-10 14:21:00,
2013-12-10 09:26:00,73.1,68.0,30.15,WSW,252,0.0,2.0,84,0.00,,---,0.00,VWS V14.01,2013-12-10 14:26:00,
2013-12-10 09:30:00,73.7,68.2,30.15,East,90,0.0,3.0,83,0.00,,---,0.00,VWS V14.01,2013-12-10 14:30:00,
2013-12-10 09:31:00,73.9,68.4,30.15,SW,214,0.0,1.0,83,0.00,,---,0.00,VWS V14.01,2013-12-10 14:31:00,
2013-12-10 09:36:00,74.5,68.3,30.15,West,278,1.0,5.0,81,0.00,,---,0.00,VWS V14.01,2013-12-10 14:36:00,
2013-12-10 09:40:00,74.6,68.4,30.14,SSE,159,0.0,5.0,81,0.00,,---,0.00,VWS V14.01,2013-12-10 14:40:00,
2013-12-10 09:41:00,74.8,68.6,30.15,ENE,71,0.0,1.0,81,0.00,,---,0.00,VWS V14.01,2013-12-10 14:41:00,
2013-12-10 09:46:00,75.1,68.5,30.15,NNW,336,0.0,3.0,80,0.00,,---,0.00,VWS V14.01,2013-12-10 14:46:00,
2013-12-10 09:50:00,75.3,68.7,30.15,NNW,335,1.0,6.0,80,0.00,,---,0.00,VWS V14.01,2013-12-10 14:50:00,
2013-12-10 09:51:00,75.4,68.4,30.15,SSW,198,0.0,1.0,79,0.00,,---,0.00,VWS V14.01,2013-12-10 14:51:00,
2013-12-10 09:56:00,75.8,68.5,30.15,NE,56,0.0,3.0,78,0.00,,---,0.00,VWS V14.01,2013-12-10 14:56:00,
2013-12-10 10:00:00,76.1,68.8,30.15,South,170,1.0,4.0,78,0.00,,---,0.00,VWS V14.01,2013-12-10 15:00:00,
2013-12-10 10:01:00,76.2,69.2,30.15,NW,306,0.0,1.0,79,0.00,,---,0.00,VWS V14.01,2013-12-10 15:01:00,
2013-12-10 10:06:00,76.5,68.8,30.15,NW,314,3.0,4.0,77,0.00,,---,0.00,VWS V14.01,2013-12-10 15:06:00,
2013-12-10 10:10:00,76.7,68.9,30.15,West,266,0.0,4.0,77,0.00,,---,0.00,VWS V14.01,2013-12-10 15:10:00,
2013-12-10 10:11:00,76.9,69.5,30.15,WNW,292,0.0,1.0,78,0.00,,---,0.00,VWS V14.01,2013-12-10 15:11:00,
2013-12-10 10:16:00,77.1,69.0,30.15,NW,314,2.0,4.0,76,0.00,,---,0.00,VWS V14.01,2013-12-10 15:16:00,
2013-12-10 10:20:00,77.4,68.9,30.15,SW,231,1.0,5.0,75,0.00,,---,0.00,VWS V14.01,2013-12-10 15:20:00,
2013-12-10 10:21:00,77.5,69.0,30.15,NW,311,1.0,4.0,75,0.00,,---,0.00,VWS V14.01,2013-12-10 15:21:00,
2013-12-10 10:26:00,77.9,68.9,30.15,NW,316,1.0,5.0,74,0.00,,---,0.00,VWS V14.01,2013-12-10 15:26:00,
2013-12-10 10:30:00,78.0,69.1,30.14,NE,44,2.0,6.0,74,0.00,,---,0.00,VWS V14.01,2013-12-10 15:30:00,
2013-12-10 10:31:00,78.1,69.1,30.14,West,260,2.0,3.0,74,0.00,,---,0.00,VWS V14.01,2013-12-10 15:31:00,
2013-12-10 10:36:00,78.2,69.2,30.15,West,278,3.0,6.0,74,0.00,,---,0.00,VWS V14.01,2013-12-10 15:36:00,
2013-12-10 10:40:00,78.5,69.1,30.15,West,281,0.0,7.0,73,0.00,,---,0.00,VWS V14.01,2013-12-10 15:40:00,
2013-12-10 10:41:00,78.6,69.2,30.15,WNW,287,3.0,4.0,73,0.00,,---,0.00,VWS V14.01,2013-12-10 15:41:00,
2013-12-10 10:46:00,79.0,69.2,30.15,NNE,13,1.0,5.0,72,0.00,,---,0.00,VWS V14.01,2013-12-10 15:46:00,
2013-12-10 10:50:00,79.4,69.6,30.15,NW,307,2.0,5.0,72,0.00,,---,0.00,VWS V14.01,2013-12-10 15:50:00,
2013-12-10 10:51:00,79.6,69.4,30.15,NW,314,1.0,3.0,71,0.00,,---,0.00,VWS V14.01,2013-12-10 15:51:00,
2013-12-10 10:56:00,79.9,69.7,30.15,West,277,2.0,3.0,71,0.00,,---,0.00,VWS V14.01,2013-12-10 15:56:00,
2013-12-10 11:00:00,80.1,69.0,30.14,WSW,255,1.0,5.0,69,0.00,,---,0.00,VWS V14.01,2013-12-10 16:00:00,
2013-12-10 11:01:00,80.1,69.0,30.14,NW,320,4.0,4.0,69,0.00,,---,0.00,VWS V14.01,2013-12-10 16:01:00,
2013-12-10 11:06:00,80.3,69.2,30.14,West,272,1.0,4.0,69,0.00,,---,0.00,VWS V14.01,2013-12-10 16:06:00,
2013-12-10 11:10:00,80.3,67.9,30.14,NW,307,0.0,5.0,66,0.00,,---,0.00,VWS V14.01,2013-12-10 16:10:00,
2013-12-10 11:12:00,80.0,67.6,30.14,West,277,1.0,3.0,66,0.00,,---,0.00,VWS V14.01,2013-12-10 16:12:00,
2013-12-10 11:17:00,80.1,68.6,30.14,WSW,253,1.0,3.0,68,0.00,,---,0.00,VWS V14.01,2013-12-10 16:17:00,
2013-12-10 11:20:00,80.5,68.5,30.14,West,264,3.0,8.0,67,0.00,,---,0.00,VWS V14.01,2013-12-10 16:20:00,
2013-12-10 11:22:00,80.5,68.5,30.14,WSW,242,1.0,3.0,67,0.00,,---,0.00,VWS V14.01,2013-12-10 16:22:00,
2013-12-10 11:27:00,80.9,69.4,30.14,WNW,302,0.0,4.0,68,0.00,,---,0.00,VWS V14.01,2013-12-10 16:27:00,
2013-12-10 11:30:00,81.2,69.6,30.14,WNW,295,4.0,5.0,68,0.00,,---,0.00,VWS V14.01,2013-12-10 16:30:00,
2013-12-10 11:32:00,81.2,68.8,30.14,NNW,343,2.0,4.0,66,0.00,,---,0.00,VWS V14.01,2013-12-10 16:32:00,
2013-12-10 11:37:00,81.0,68.6,30.13,North,11,2.0,4.0,66,0.00,,---,0.00,VWS V14.01,2013-12-10 16:37:00,
2013-12-10 11:40:00,81.1,68.7,30.13,WNW,285,1.0,4.0,66,0.00,,---,0.00,VWS V14.01,2013-12-10 16:40:00,
2013-12-10 11:42:00,81.2,68.8,30.13,WSW,255,1.0,3.0,66,0.00,,---,0.00,VWS V14.01,2013-12-10 16:42:00,
2013-12-10 11:47:00,81.4,69.0,30.12,West,281,0.0,6.0,66,0.00,,---,0.00,VWS V14.01,2013-12-10 16:47:00,
2013-12-10 11:50:00,81.4,69.0,30.12,WNW,285,5.0,6.0,66,0.00,,---,0.00,VWS V14.01,2013-12-10 16:50:00,
2013-12-10 11:52:00,81.5,69.1,30.12,WNW,301,1.0,5.0,66,0.00,,---,0.00,VWS V14.01,2013-12-10 16:52:00,
2013-12-10 11:57:00,81.5,69.5,30.12,WNW,285,1.0,5.0,67,0.00,,---,0.00,VWS V14.01,2013-12-10 16:57:00,
2013-12-10 12:00:00,81.7,69.7,30.12,WSW,238,3.0,5.0,67,0.00,,---,0.00,VWS V14.01,2013-12-10 17:00:00,
2013-12-10 12:02:00,82.0,70.0,30.12,WNW,301,0.0,3.0,67,0.00,,---,0.00,VWS V14.01,2013-12-10 17:02:00,
2013-12-10 12:07:00,82.1,67.8,30.12,WNW,293,1.0,6.0,62,0.00,,---,0.00,VWS V14.01,2013-12-10 17:07:00,
2013-12-10 12:10:00,82.3,68.0,30.12,WNW,284,1.0,6.0,62,0.00,,---,0.00,VWS V14.01,2013-12-10 17:10:00,
2013-12-10 12:12:00,82.5,68.6,30.12,WNW,299,3.0,3.0,63,0.00,,---,0.00,VWS V14.01,2013-12-10 17:12:00,
2013-12-10 12:17:00,82.8,68.5,30.11,WNW,298,0.0,3.0,62,0.00,,---,0.00,VWS V14.01,2013-12-10 17:17:00,
2013-12-10 12:20:00,82.8,67.5,30.11,SW,229,0.0,5.0,60,0.00,,---,0.00,VWS V14.01,2013-12-10 17:20:00,
2013-12-10 12:22:00,82.9,67.6,30.11,West,269,0.0,12.0,60,0.00,,---,0.00,VWS V14.01,2013-12-10 17:22:00,
2013-12-10 12:27:00,82.6,66.3,30.11,SSW,207,2.0,12.0,58,0.00,,---,0.00,VWS V14.01,2013-12-10 17:27:00,
2013-12-10 12:30:00,82.5,67.7,30.11,WNW,294,5.0,12.0,61,0.00,,---,0.00,VWS V14.01,2013-12-10 17:30:00,
2013-12-10 12:32:00,82.6,66.8,30.10,SE,124,1.0,5.0,59,0.00,,---,0.00,VWS V14.01,2013-12-10 17:32:00,
2013-12-10 12:37:00,82.8,67.0,30.10,SW,229,3.0,6.0,59,0.00,,---,0.00,VWS V14.01,2013-12-10 17:37:00,
2013-12-10 12:40:00,82.8,67.0,30.10,NE,52,2.0,6.0,59,0.00,,---,0.00,VWS V14.01,2013-12-10 17:40:00,
2013-12-10 12:42:00,82.8,67.0,30.09,NNE,33,2.0,5.0,59,0.00,,---,0.00,VWS V14.01,2013-12-10 17:42:00,
2013-12-10 12:47:00,82.9,67.1,30.09,WNW,287,1.0,7.0,59,0.00,,---,0.00,VWS V14.01,2013-12-10 17:47:00,
2013-12-10 12:50:00,82.9,67.6,30.09,NW,307,0.0,7.0,60,0.00,,---,0.00,VWS V14.01,2013-12-10 17:50:00,
2013-12-10 12:52:00,82.9,67.1,30.09,NW,326,3.0,5.0,59,0.00,,---,0.00,VWS V14.01,2013-12-10 17:52:00,
2013-12-10 12:57:00,83.0,67.2,30.08,NW,325,2.0,7.0,59,0.00,,---,0.00,VWS V14.01,2013-12-10 17:57:00,
2013-12-10 13:00:00,83.0,67.2,30.08,WNW,298,2.0,7.0,59,0.00,,---,0.00,VWS V14.01,2013-12-10 18:00:00,
2013-12-10 13:02:00,83.2,67.4,30.08,NW,312,3.0,3.0,59,0.00,,---,0.00,VWS V14.01,2013-12-10 18:02:00,
2013-12-10 13:07:00,83.4,67.6,30.08,West,270,1.0,5.0,59,0.00,,---,0.00,VWS V14.01,2013-12-10 18:07:00,
2013-12-10 13:10:00,83.4,67.1,30.08,WNW,290,3.0,5.0,58,0.00,,---,0.00,VWS V14.01,2013-12-10 18:10:00,
2013-12-10 13:12:00,83.2,67.4,30.08,West,279,1.0,6.0,59,0.00,,---,0.00,VWS V14.01,2013-12-10 18:12:00,
2013-12-10 13:17:00,83.4,67.6,30.07,WNW,287,0.0,6.0,59,0.00,,---,0.00,VWS V14.01,2013-12-10 18:17:00,
2013-12-10 13:20:00,83.5,68.2,30.07,SE,131,0.0,6.0,60,0.00,,---,0.00,VWS V14.01,2013-12-10 18:20:00,
2013-12-10 13:22:00,83.8,68.0,30.07,WNW,295,2.0,3.0,59,0.00,,---,0.00,VWS V14.01,2013-12-10 18:22:00,
2013-12-10 13:27:00,83.8,67.5,30.07,WNW,284,3.0,5.0,58,0.00,,---,0.00,VWS V14.01,2013-12-10 18:27:00,
2013-12-10 13:30:00,83.6,67.3,30.07,West,262,4.0,6.0,58,0.00,,---,0.00,VWS V14.01,2013-12-10 18:30:00,
2013-12-10 13:32:00,83.5,67.2,30.06,WNW,295,1.0,4.0,58,0.00,,---,0.00,VWS V14.01,2013-12-10 18:32:00,
2013-12-10 13:38:00,83.5,67.2,30.06,WNW,297,0.0,4.0,58,0.00,,---,0.00,VWS V14.01,2013-12-10 18:38:00,
2013-12-10 13:40:00,83.6,67.3,30.06,SE,127,0.0,4.0,58,0.00,,---,0.00,VWS V14.01,2013-12-10 18:40:00,
2013-12-10 13:43:00,83.7,67.4,30.06,WNW,303,0.0,3.0,58,0.00,,---,0.00,VWS V14.01,2013-12-10 18:43:00,
2013-12-10 13:48:00,83.8,67.0,30.06,West,279,3.0,6.0,57,0.00,,---,0.00,VWS V14.01,2013-12-10 18:48:00,
2013-12-10 13:50:00,83.8,67.0,30.06,West,271,2.0,6.0,57,0.00,,---,0.00,VWS V14.01,2013-12-10 18:50:00,
2013-12-10 13:53:00,83.8,67.5,30.06,WSW,252,3.0,7.0,58,0.00,,---,0.00,VWS V14.01,2013-12-10 18:53:00,
2013-12-10 13:58:00,83.9,67.6,30.06,West,259,2.0,7.0,58,0.00,,---,0.00,VWS V14.01,2013-12-10 18:58:00,
2013-12-10 14:00:00,84.1,67.7,30.06,West,262,0.0,7.0,58,0.00,,---,0.00,VWS V14.01,2013-12-10 19:00:00,
2013-12-10 14:03:00,84.3,67.9,30.06,West,262,2.0,5.0,58,0.00,,---,0.00,VWS V14.01,2013-12-10 19:03:00,
2013-12-10 14:08:00,84.4,68.0,30.06,North,353,1.0,5.0,58,0.00,,---,0.00,VWS V14.01,2013-12-10 19:08:00,
2013-12-10 14:10:00,84.5,67.6,30.05,WSW,243,1.0,5.0,57,0.00,,---,0.00,VWS V14.01,2013-12-10 19:10:00,
2013-12-10 14:13:00,84.7,68.3,30.06,WSW,248,0.0,5.0,58,0.00,,---,0.00,VWS V14.01,2013-12-10 19:13:00,
2013-12-10 14:18:00,84.6,66.7,30.06,West,267,1.0,5.0,55,0.00,,---,0.00,VWS V14.01,2013-12-10 19:18:00,
2013-12-10 14:20:00,84.6,66.1,30.05,West,267,2.0,5.0,54,0.00,,---,0.00,VWS V14.01,2013-12-10 19:20:00,
2013-12-10 14:23:00,84.2,65.8,30.06,West,259,3.0,9.0,54,0.00,,---,0.00,VWS V14.01,2013-12-10 19:23:00,
2013-12-10 14:28:00,83.6,66.3,30.06,West,274,2.0,9.0,56,0.00,,---,0.00,VWS V14.01,2013-12-10 19:28:00,
2013-12-10 14:30:00,83.6,66.3,30.05,West,270,1.0,9.0,56,0.00,,---,0.00,VWS V14.01,2013-12-10 19:30:00,
2013-12-10 14:33:00,83.7,66.3,30.05,WNW,297,1.0,3.0,56,0.00,,---,0.00,VWS V14.01,2013-12-10 19:33:00,
2013-12-10 14:38:00,83.5,65.7,30.05,West,278,2.0,6.0,55,0.00,,---,0.00,VWS V14.01,2013-12-10 19:38:00,
2013-12-10 14:40:00,83.4,66.1,30.06,WSW,244,2.0,6.0,56,0.00,,---,0.00,VWS V14.01,2013-12-10 19:40:00,
2013-12-10 14:43:00,83.3,66.5,30.05,West,275,1.0,5.0,57,0.00,,---,0.00,VWS V14.01,2013-12-10 19:43:00,
2013-12-10 14:48:00,83.1,65.8,30.05,WNW,300,3.0,9.0,56,0.00,,---,0.00,VWS V14.01,2013-12-10 19:48:00,
2013-12-10 14:50:00,83.0,66.2,30.06,WNW,290,0.0,9.0,57,0.00,,---,0.00,VWS V14.01,2013-12-10 19:50:00,
2013-12-10 14:53:00,82.9,65.6,30.05,WNW,295,2.0,8.0,56,0.00,,---,0.00,VWS V14.01,2013-12-10 19:53:00,
2013-12-10 14:58:00,82.8,66.0,30.05,West,276,3.0,8.0,57,0.00,,---,0.00,VWS V14.01,2013-12-10 19:58:00,
2013-12-10 15:00:00,82.7,65.9,30.05,WNW,294,1.0,8.0,57,0.00,,---,0.00,VWS V14.01,2013-12-10 20:00:00,
2013-12-10 15:03:00,82.6,65.8,30.05,NW,308,1.0,4.0,57,0.00,,---,0.00,VWS V14.01,2013-12-10 20:03:00,
2013-12-10 15:08:00,82.4,65.7,30.06,West,266,1.0,6.0,57,0.00,,---,0.00,VWS V14.01,2013-12-10 20:08:00,
2013-12-10 15:10:00,82.4,65.7,30.06,West,267,1.0,6.0,57,0.00,,---,0.00,VWS V14.01,2013-12-10 20:10:00,
2013-12-10 15:13:00,82.3,66.1,30.05,NW,309,0.0,4.0,58,0.00,,---,0.00,VWS V14.01,2013-12-10 20:13:00,
2013-12-10 15:18:00,82.3,65.6,30.05,West,278,0.0,5.0,57,0.00,,---,0.00,VWS V14.01,2013-12-10 20:18:00,
2013-12-10 15:20:00,82.2,66.0,30.06,West,266,1.0,5.0,58,0.00,,---,0.00,VWS V14.01,2013-12-10 20:20:00,
2013-12-10 15:23:00,82.1,65.9,30.06,WNW,285,2.0,6.0,58,0.00,,---,0.00,VWS V14.01,2013-12-10 20:23:00,
2013-12-10 15:28:00,82.2,66.5,30.06,WSW,257,1.0,10.0,59,0.00,,---,0.00,VWS V14.01,2013-12-10 20:28:00,
2013-12-10 15:30:00,82.2,66.0,30.06,WSW,252,2.0,10.0,58,0.00,,---,0.00,VWS V14.01,2013-12-10 20:30:00,
2013-12-10 15:33:00,82.2,66.0,30.06,WNW,295,1.0,7.0,58,0.00,,---,0.00,VWS V14.01,2013-12-10 20:33:00,
2013-12-10 15:38:00,82.1,65.9,30.06,West,259,4.0,7.0,58,0.00,,---,0.00,VWS V14.01,2013-12-10 20:38:00,
2013-12-10 15:40:00,82.1,64.9,30.06,West,280,3.0,7.0,56,0.00,,---,0.00,VWS V14.01,2013-12-10 20:40:00,
2013-12-10 15:43:00,82.1,65.4,30.06,WSW,246,3.0,8.0,57,0.00,,---,0.00,VWS V14.01,2013-12-10 20:43:00,
2013-12-10 15:48:00,81.8,65.1,30.06,West,267,1.0,8.0,57,0.00,,---,0.00,VWS V14.01,2013-12-10 20:48:00,
2013-12-10 15:50:00,81.8,65.1,30.06,West,270,2.0,8.0,57,0.00,,---,0.00,VWS V14.01,2013-12-10 20:50:00,
2013-12-10 15:53:00,81.6,65.4,30.06,WSW,253,4.0,6.0,58,0.00,,---,0.00,VWS V14.01,2013-12-10 20:53:00,
2013-12-10 16:00:00,81.5,65.3,30.06,West,270,2.0,7.0,58,0.00,,---,0.00,VWS V14.01,2013-12-10 21:00:00,
2013-12-10 16:10:00,78.5,66.6,30.09,West,263,1.0,3.0,67,0.00,,---,0.00,VWS V15.00,2013-12-10 21:10:00,
2013-12-10 16:14:00,81.0,65.3,30.07,WNW,290,2.0,2.0,59,0.00,,---,0.00,VWS V14.01,2013-12-10 21:14:00,
2013-12-10 16:19:00,80.8,65.6,30.07,West,266,3.0,5.0,60,0.00,,---,0.00,VWS V14.01,2013-12-10 21:19:00,
2013-12-10 16:20:00,80.7,65.1,30.07,WNW,298,4.0,5.0,59,0.00,,---,0.00,VWS V14.01,2013-12-10 21:20:00,
2013-12-10 16:24:00,80.4,65.7,30.07,WNW,295,1.0,4.0,61,0.00,,---,0.00,VWS V14.01,2013-12-10 21:24:00,
2013-12-10 16:29:00,80.1,65.0,30.08,WSW,256,5.0,6.0,60,0.00,,---,0.00,VWS V14.01,2013-12-10 21:29:00,
2013-12-10 16:30:00,80.1,65.0,30.08,WSW,245,3.0,6.0,60,0.00,,---,0.00,VWS V14.01,2013-12-10 21:30:00,
2013-12-10 16:34:00,79.9,65.7,30.08,WNW,291,1.0,5.0,62,0.00,,---,0.00,VWS V14.01,2013-12-10 21:34:00,
2013-12-10 16:39:00,79.6,65.9,30.08,West,270,3.0,5.0,63,0.00,,---,0.00,VWS V14.01,2013-12-10 21:39:00,
2013-12-10 16:40:00,79.6,65.4,30.08,West,264,1.0,5.0,62,0.00,,---,0.00,VWS V14.01,2013-12-10 21:40:00,
2013-12-10 16:44:00,79.4,65.7,30.08,West,274,1.0,4.0,63,0.00,,---,0.00,VWS V14.01,2013-12-10 21:44:00,
2013-12-10 16:49:00,79.2,66.0,30.08,WNW,300,2.0,4.0,64,0.00,,---,0.00,VWS V14.01,2013-12-10 21:49:00,
2013-12-10 16:50:00,79.2,66.0,30.08,West,270,1.0,4.0,64,0.00,,---,0.00,VWS V14.01,2013-12-10 21:50:00,
2013-12-10 16:54:00,79.1,65.9,30.08,WNW,293,3.0,5.0,64,0.00,,---,0.00,VWS V14.01,2013-12-10 21:54:00,
2013-12-10 16:59:00,78.9,66.2,30.08,West,271,0.0,5.0,65,0.00,,---,0.00,VWS V14.01,2013-12-10 21:59:00,
2013-12-10 17:00:00,78.9,66.2,30.08,West,271,0.0,5.0,65,0.00,,---,0.00,VWS V14.01,2013-12-10 22:00:00,
2013-12-10 17:04:00,78.8,66.5,30.08,WNW,283,1.0,2.0,66,0.00,,---,0.00,VWS V14.01,2013-12-10 22:04:00,
2013-12-10 17:09:00,78.5,66.6,30.09,West,263,1.0,3.0,67,0.00,,---,0.00,VWS V14.01,2013-12-10 22:09:00,
2013-12-10 17:10:00,78.5,66.6,30.09,West,263,1.0,3.0,67,0.00,,---,0.00,VWS V14.01,2013-12-10 22:10:00,
2013-12-10 17:14:00,78.4,66.6,30.09,WNW,300,2.0,4.0,67,0.00,,---,0.00,VWS V14.01,2013-12-10 22:14:00,
2013-12-10 17:19:00,78.2,66.8,30.09,WNW,284,4.0,6.0,68,0.00,,---,0.00,VWS V14.01,2013-12-10 22:19:00,
2013-12-10 17:20:00,78.2,66.8,30.09,West,273,1.0,6.0,68,0.00,,---,0.00,VWS V14.01,2013-12-10 22:20:00,
2013-12-10 17:24:00,78.0,67.4,30.10,WSW,253,4.0,4.0,70,0.00,,---,0.00,VWS V14.01,2013-12-10 22:24:00,
2013-12-10 17:29:00,76.1,68.8,30.11,WSW,257,2.0,6.0,78,0.01,,---,0.01,VWS V14.01,2013-12-10 22:29:00,
2013-12-10 17:30:00,76.1,68.8,30.11,West,259,2.0,6.0,78,0.01,,---,0.01,VWS V14.01,2013-12-10 22:30:00,
2013-12-10 17:34:00,74.2,68.7,30.11,West,281,1.0,4.0,83,0.02,,---,0.02,VWS V14.01,2013-12-10 22:34:00,
2013-12-10 17:39:00,73.2,68.4,30.11,West,272,0.0,4.0,85,0.02,,---,0.02,VWS V14.01,2013-12-10 22:39:00,
2013-12-10 17:40:00,73.2,68.4,30.11,West,272,0.0,4.0,85,0.02,,---,0.02,VWS V14.01,2013-12-10 22:40:00,
2013-12-10 17:44:00,72.7,68.3,30.11,West,267,0.0,1.0,86,0.02,,---,0.02,VWS V14.01,2013-12-10 22:44:00,
2013-12-10 17:49:00,72.4,68.0,30.11,West,274,0.0,1.0,86,0.02,,---,0.02,VWS V14.01,2013-12-10 22:49:00,
2013-12-10 17:50:00,72.4,68.0,30.11,West,274,0.0,1.0,86,0.02,,---,0.02,VWS V14.01,2013-12-10 22:50:00,
2013-12-10 17:55:00,72.2,68.1,30.11,West,274,0.0,1.0,87,0.02,,---,0.02,VWS V14.01,2013-12-10 22:55:00,
2013-12-10 18:00:00,72.0,67.9,30.11,West,274,0.0,1.0,87,0.02,,---,0.02,VWS V14.01,2013-12-10 23:00:00,
2013-12-10 18:05:00,71.7,67.6,30.11,West,273,0.0,1.0,87,0.02,,---,0.02,VWS V14.01,2013-12-10 23:05:00,
2013-12-10 18:10:00,71.6,67.5,30.11,West,273,0.0,1.0,87,0.02,,---,0.02,VWS V14.01,2013-12-10 23:10:00,
2013-12-10 18:15:00,71.5,67.4,30.11,West,273,0.0,0.0,87,0.02,,---,0.02,VWS V14.01,2013-12-10 23:15:00,
2013-12-10 18:20:00,71.3,67.2,30.11,West,273,0.0,0.0,87,0.02,,---,0.02,VWS V14.01,2013-12-10 23:20:00,
2013-12-10 18:25:00,71.2,67.1,30.11,West,273,0.0,0.0,87,0.02,,---,0.02,VWS V14.01,2013-12-10 23:25:00,
2013-12-10 18:30:00,71.1,67.0,30.11,West,272,0.0,0.0,87,0.01,,---,0.02,VWS V14.01,2013-12-10 23:30:00,
2013-12-10 18:35:00,71.1,67.0,30.12,West,273,0.0,0.0,87,0.01,,---,0.02,VWS V14.01,2013-12-10 23:35:00,
2013-12-10 18:40:00,71.2,67.1,30.12,West,273,0.0,0.0,87,0.00,,---,0.02,VWS V14.01,2013-12-10 23:40:00,
2013-12-10 18:45:00,71.2,67.1,30.12,West,273,0.0,1.0,87,0.00,,---,0.02,VWS V14.01,2013-12-10 23:45:00,
2013-12-10 18:50:00,71.2,67.1,30.12,West,272,0.0,0.0,87,0.00,,---,0.02,VWS V14.01,2013-12-10 23:50:00,
2013-12-10 18:55:00,71.1,67.0,30.12,West,267,0.0,0.0,87,0.00,,---,0.02,VWS V14.01,2013-12-10 23:55:00,
2013-12-10 19:00:00,71.1,67.0,30.13,West,267,0.0,0.0,87,0.00,,---,0.02,VWS V14.01,2013-12-11 00:00:00,
2013-12-10 19:05:00,71.1,67.0,30.13,West,267,0.0,0.0,87,0.00,,---,0.02,VWS V14.01,2013-12-11 00:05:00,
2013-12-10 19:10:00,71.1,67.0,30.13,WNW,283,0.0,0.0,87,0.00,,---,0.02,VWS V14.01,2013-12-11 00:10:00,
2013-12-10 19:15:00,71.0,66.9,30.13,West,270,1.0,2.0,87,0.00,,---,0.02,VWS V14.01,2013-12-11 00:15:00,
2013-12-10 19:20:00,70.9,66.8,30.14,West,281,1.0,1.0,87,0.00,,---,0.02,VWS V14.01,2013-12-11 00:20:00,
2013-12-10 19:25:00,70.9,66.8,30.14,West,278,0.0,2.0,87,0.00,,---,0.02,VWS V14.01,2013-12-11 00:25:00,
2013-12-10 19:30:00,70.9,66.8,30.14,WNW,298,1.0,1.0,87,0.00,,---,0.02,VWS V14.01,2013-12-11 00:30:00,
2013-12-10 19:35:00,70.9,66.8,30.15,SW,225,0.0,2.0,87,0.00,,---,0.02,VWS V14.01,2013-12-11 00:35:00,
2013-12-10 19:40:00,70.6,66.6,30.15,ESE,110,2.0,2.0,87,0.00,,---,0.02,VWS V14.01,2013-12-11 00:40:00,
2013-12-10 19:45:00,70.3,66.2,30.15,South,169,1.0,4.0,87,0.00,,---,0.02,VWS V14.01,2013-12-11 00:45:00,
2013-12-10 19:50:00,70.2,66.2,30.15,ENE,70,2.0,2.0,87,0.00,,---,0.02,VWS V14.01,2013-12-11 00:50:00,
2013-12-10 19:55:00,70.1,66.1,30.16,SSE,148,1.0,3.0,87,0.00,,---,0.02,VWS V14.01,2013-12-11 00:55:00,
2013-12-10 20:00:00,70.1,66.1,30.16,East,98,0.0,1.0,87,0.00,,---,0.02,VWS V14.01,2013-12-11 01:00:00,
2013-12-10 20:05:00,69.9,65.9,30.16,SE,124,0.0,3.0,87,0.00,,---,0.02,VWS V14.01,2013-12-11 01:05:00,
2013-12-10 20:10:00,69.8,65.8,30.16,ESE,108,0.0,0.0,87,0.00,,---,0.02,VWS V14.01,2013-12-11 01:10:00,
2013-12-10 20:15:00,69.7,65.7,30.16,East,83,0.0,1.0,87,0.00,,---,0.02,VWS V14.01,2013-12-11 01:15:00,
2013-12-10 20:20:00,69.6,65.6,30.16,ESE,120,1.0,1.0,87,0.00,,---,0.02,VWS V14.01,2013-12-11 01:20:00,
2013-12-10 20:25:00,69.6,65.6,30.16,ESE,115,0.0,1.0,87,0.00,,---,0.02,VWS V14.01,2013-12-11 01:25:00,
2013-12-10 20:30:00,69.6,65.6,30.16,ENE,71,0.0,2.0,87,0.00,,---,0.02,VWS V14.01,2013-12-11 01:30:00,
2013-12-10 20:36:00,69.5,65.5,30.16,ESE,107,0.0,2.0,87,0.00,,---,0.02,VWS V14.01,2013-12-11 01:36:00,
2013-12-10 20:40:00,69.5,65.5,30.16,WNW,282,1.0,2.0,87,0.00,,---,0.02,VWS V14.01,2013-12-11 01:40:00,
2013-12-10 20:41:00,69.5,65.5,30.16,East,87,1.0,3.0,87,0.00,,---,0.02,VWS V14.01,2013-12-11 01:41:00,
2013-12-10 20:46:00,69.4,65.4,30.16,ESE,116,2.0,4.0,87,0.00,,---,0.02,VWS V14.01,2013-12-11 01:46:00,
2013-12-10 20:50:00,69.4,65.4,30.16,SE,130,1.0,4.0,87,0.00,,---,0.02,VWS V14.01,2013-12-11 01:50:00,
2013-12-10 20:51:00,69.3,65.3,30.16,West,274,3.0,3.0,87,0.00,,---,0.02,VWS V14.01,2013-12-11 01:51:00,
2013-12-10 20:56:00,69.2,65.2,30.16,SSE,158,0.0,3.0,87,0.00,,---,0.02,VWS V14.01,2013-12-11 01:56:00,
2013-12-10 21:00:00,69.2,65.2,30.16,ESE,110,1.0,4.0,87,0.00,,---,0.02,VWS V14.01,2013-12-11 02:00:00,
2013-12-10 21:01:00,69.2,65.2,30.16,WSW,246,1.0,1.0,87,0.00,,---,0.02,VWS V14.01,2013-12-11 02:01:00,
2013-12-10 21:06:00,69.2,65.2,30.17,SE,146,1.0,3.0,87,0.00,,---,0.02,VWS V14.01,2013-12-11 02:06:00,
2013-12-10 21:10:00,69.1,65.1,30.17,East,82,0.0,3.0,87,0.00,,---,0.02,VWS V14.01,2013-12-11 02:10:00,
2013-12-10 21:11:00,69.1,65.1,30.17,East,94,4.0,4.0,87,0.00,,---,0.02,VWS V14.01,2013-12-11 02:11:00,
2013-12-10 21:16:00,69.0,65.0,30.17,ENE,67,1.0,4.0,87,0.00,,---,0.02,VWS V14.01,2013-12-11 02:16:00,
2013-12-10 21:20:00,69.0,65.0,30.17,ESE,102,1.0,4.0,87,0.00,,---,0.02,VWS V14.01,2013-12-11 02:20:00,
2013-12-10 21:21:00,69.0,65.0,30.17,WSW,246,1.0,2.0,87,0.00,,---,0.02,VWS V14.01,2013-12-11 02:21:00,
2013-12-10 21:26:00,68.9,64.9,30.17,WSW,246,0.0,2.0,87,0.00,,---,0.02,VWS V14.01,2013-12-11 02:26:00,
2013-12-10 21:30:00,68.8,64.8,30.17,SSE,154,0.0,2.0,87,0.00,,---,0.02,VWS V14.01,2013-12-11 02:30:00,
2013-12-10 21:31:00,68.8,64.8,30.17,ENE,61,0.0,1.0,87,0.00,,---,0.02,VWS V14.01,2013-12-11 02:31:00,
2013-12-10 21:36:00,68.7,65.0,30.17,East,89,0.0,3.0,88,0.00,,---,0.02,VWS V14.01,2013-12-11 02:36:00,
2013-12-10 21:40:00,68.6,64.6,30.17,ENE,68,1.0,5.0,87,0.00,,---,0.02,VWS V14.01,2013-12-11 02:40:00,
2013-12-10 21:41:00,68.6,64.6,30.18,ESE,108,2.0,4.0,87,0.00,,---,0.02,VWS V14.01,2013-12-11 02:41:00,
2013-12-10 21:46:00,68.4,64.4,30.17,ENE,70,3.0,5.0,87,0.00,,---,0.02,VWS V14.01,2013-12-11 02:46:00,
2013-12-10 21:50:00,68.5,64.5,30.18,ESE,106,3.0,5.0,87,0.00,,---,0.02,VWS V14.01,2013-12-11 02:50:00,
2013-12-10 21:51:00,68.4,64.4,30.18,East,98,2.0,5.0,87,0.01,,---,0.03,VWS V14.01,2013-12-11 02:51:00,
2013-12-10 21:56:00,68.2,63.9,30.18,SE,135,0.0,5.0,86,0.01,,---,0.03,VWS V14.01,2013-12-11 02:56:00,
2013-12-10 22:00:00,68.0,63.7,30.18,ENE,75,1.0,5.0,86,0.01,,---,0.03,VWS V14.01,2013-12-11 03:00:00,
2013-12-10 22:01:00,68.0,63.7,30.18,ENE,70,2.0,6.0,86,0.01,,---,0.03,VWS V14.01,2013-12-11 03:01:00,
2013-12-10 22:06:00,67.9,63.6,30.18,ESE,103,1.0,8.0,86,0.01,,---,0.03,VWS V14.01,2013-12-11 03:06:00,
2013-12-10 22:10:00,67.8,63.5,30.19,SE,130,3.0,8.0,86,0.01,,---,0.03,VWS V14.01,2013-12-11 03:10:00,
2013-12-10 22:11:00,67.8,63.5,30.19,SW,216,1.0,3.0,86,0.01,,---,0.03,VWS V14.01,2013-12-11 03:11:00,
2013-12-10 22:16:00,67.7,63.4,30.19,NNE,27,0.0,4.0,86,0.01,,---,0.03,VWS V14.01,2013-12-11 03:16:00,
2013-12-10 22:20:00,67.6,63.3,30.19,East,96,1.0,5.0,86,0.01,,---,0.03,VWS V14.01,2013-12-11 03:20:00,
2013-12-10 22:21:00,67.5,63.2,30.19,SSE,153,1.0,2.0,86,0.01,,---,0.03,VWS V14.01,2013-12-11 03:21:00,
2013-12-10 22:26:00,67.4,63.4,30.19,ESE,110,4.0,4.0,87,0.01,,---,0.03,VWS V14.01,2013-12-11 03:26:00,
2013-12-10 22:30:00,67.2,62.9,30.19,ENE,74,2.0,5.0,86,0.01,,---,0.03,VWS V14.01,2013-12-11 03:30:00,
2013-12-10 22:31:00,67.2,62.9,30.19,SSW,194,0.0,2.0,86,0.01,,---,0.03,VWS V14.01,2013-12-11 03:31:00,
2013-12-10 22:36:00,66.9,62.6,30.19,ENE,76,3.0,4.0,86,0.01,,---,0.03,VWS V14.01,2013-12-11 03:36:00,
2013-12-10 22:40:00,66.7,62.4,30.19,East,85,2.0,4.0,86,0.01,,---,0.03,VWS V14.01,2013-12-11 03:40:00,
2013-12-10 22:41:00,66.5,62.2,30.19,East,84,2.0,2.0,86,0.01,,---,0.03,VWS V14.01,2013-12-11 03:41:00,
2013-12-10 22:46:00,66.2,61.6,30.19,SSE,150,2.0,5.0,85,0.01,,---,0.03,VWS V14.01,2013-12-11 03:46:00,
2013-12-10 22:50:00,66.0,61.4,30.19,SE,130,0.0,5.0,85,0.01,,---,0.03,VWS V14.01,2013-12-11 03:50:00,
2013-12-10 22:51:00,66.0,61.4,30.19,East,84,1.0,3.0,85,0.01,,---,0.03,VWS V14.01,2013-12-11 03:51:00,
2013-12-10 22:56:00,65.8,61.2,30.20,WSW,249,1.0,5.0,85,0.01,,---,0.03,VWS V14.01,2013-12-11 03:56:00,
2013-12-10 23:00:00,65.6,61.0,30.20,SE,131,1.0,5.0,85,0.01,,---,0.03,VWS V14.01,2013-12-11 04:00:00,
2013-12-10 23:01:00,65.4,60.8,30.20,NW,315,3.0,6.0,85,0.00,,---,0.03,VWS V14.01,2013-12-11 04:01:00,
2013-12-10 23:07:00,65.2,60.2,30.20,ENE,72,4.0,6.0,84,0.00,,---,0.03,VWS V14.01,2013-12-11 04:07:00,
2013-12-10 23:10:00,65.0,60.0,30.20,SSE,160,3.0,7.0,84,0.00,,---,0.03,VWS V14.01,2013-12-11 04:10:00,
2013-12-10 23:12:00,64.9,60.0,30.20,ENE,71,4.0,4.0,84,0.00,,---,0.03,VWS V14.01,2013-12-11 04:12:00,
2013-12-10 23:17:00,64.7,59.4,30.20,East,80,1.0,8.0,83,0.00,,---,0.03,VWS V14.01,2013-12-11 04:17:00,
2013-12-10 23:20:00,64.6,59.3,30.20,ESE,117,2.0,8.0,83,0.00,,---,0.03,VWS V14.01,2013-12-11 04:20:00,
2013-12-10 23:22:00,64.5,59.6,30.20,ENE,76,1.0,6.0,84,0.00,,---,0.03,VWS V14.01,2013-12-11 04:22:00,
2013-12-10 23:27:00,64.4,59.1,30.20,ENE,73,2.0,6.0,83,0.00,,---,0.03,VWS V14.01,2013-12-11 04:27:00,
2013-12-10 23:30:00,64.3,59.0,30.20,ENE,67,0.0,6.0,83,0.00,,---,0.03,VWS V14.01,2013-12-11 04:30:00,
2013-12-10 23:32:00,64.2,58.9,30.20,East,88,2.0,3.0,83,0.00,,---,0.03,VWS V14.01,2013-12-11 04:32:00,
2013-12-10 23:37:00,64.0,58.7,30.20,NNE,19,2.0,5.0,83,0.00,,---,0.03,VWS V14.01,2013-12-11 04:37:00,
2013-12-10 23:40:00,63.9,58.6,30.21,ESE,113,1.0,5.0,83,0.00,,---,0.03,VWS V14.01,2013-12-11 04:40:00,
2013-12-10 23:42:00,63.9,58.6,30.21,ESE,107,0.0,2.0,83,0.00,,---,0.03,VWS V14.01,2013-12-11 04:42:00,
2013-12-10 23:47:00,63.7,58.5,30.21,WNW,302,3.0,3.0,83,0.00,,---,0.03,VWS V14.01,2013-12-11 04:47:00,
2013-12-10 23:50:00,63.6,58.3,30.21,SSE,149,1.0,5.0,83,0.00,,---,0.03,VWS V14.01,2013-12-11 04:50:00,
2013-12-10 23:52:00,63.5,58.2,30.21,ESE,120,0.0,3.0,83,0.00,,---,0.03,VWS V14.01,2013-12-11 04:52:00,
2013-12-10 23:57:00,63.4,58.5,30.21,East,91,1.0,5.0,84,0.00,,---,0.03,VWS V14.01,2013-12-11 04:57:00,